createdAt,value
2018-09-17T00:02:50.684Z,13.3
2018-09-17T00:12:50.923Z,13.1
2018-09-17T00:22:51.083Z,13
2018-09-17T00:32:51.242Z,12.9
2018-09-17T00:42:51.459Z,12.8
2018-09-17T00:52:52.971Z,12.7
2018-09-17T01:02:53.361Z,12.5
2018-09-17T01:32:59.339Z,12.3
2018-09-17T01:42:59.559Z,12.2
2018-09-17T01:53:00.124Z,12.1
2018-09-17T02:02:59.904Z,12.1
2018-09-17T02:23:04.392Z,11.9
2018-09-17T02:43:09.261Z,11.9
2018-09-17T03:03:12.337Z,11.7
2018-09-17T03:13:12.632Z,11.7
2018-09-17T03:23:12.757Z,11.6
2018-09-17T03:33:12.984Z,11.5
2018-09-17T03:43:13.004Z,11.4
2018-09-17T03:53:13.362Z,11.4
2018-09-17T04:03:13.756Z,11.4
2018-09-17T04:23:17.297Z,11.4
2018-09-17T04:33:17.758Z,11.5
2018-09-17T04:53:20.739Z,11.5
2018-09-17T05:03:21.402Z,11.4
2018-09-17T05:13:21.856Z,11.3
2018-09-17T05:23:21.825Z,11.5
2018-09-17T05:33:23.594Z,11.8
2018-09-17T05:43:24.025Z,12
2018-09-17T05:53:25.246Z,12.3
2018-09-17T06:13:28.700Z,13.3
2018-09-17T06:23:29.146Z,13.8
2018-09-17T06:33:29.728Z,14.1
2018-09-17T06:43:30.404Z,14.6
2018-09-17T06:53:31.008Z,14.7
2018-09-17T07:03:31.571Z,15.1
2018-09-17T07:13:31.785Z,15.2
2018-09-17T07:23:32.356Z,15.9
2018-09-17T07:33:33.092Z,17
2018-09-17T07:43:34.398Z,18.3
2018-09-17T07:53:35.233Z,19.2
2018-09-17T08:03:36.330Z,20.2
2018-09-17T08:23:40.222Z,20.6
2018-09-17T08:33:40.693Z,20.7
2018-09-17T08:53:43.871Z,21.2
2018-09-17T09:03:44.451Z,21.2
2018-09-17T09:13:44.570Z,21.2
2018-09-17T09:23:45.274Z,21
2018-09-17T09:33:45.537Z,21.2
2018-09-17T10:03:54.829Z,21.9
2018-09-17T10:13:56.123Z,22.2
2018-09-17T10:23:56.622Z,22.3
2018-09-17T10:33:59.567Z,22.4
2018-09-17T10:44:00.700Z,22.5
2018-09-17T10:54:01.381Z,22.8
2018-09-17T11:04:04.445Z,22.9
2018-09-17T11:14:04.963Z,22.9
2018-09-17T11:24:05.321Z,23
2018-09-17T11:44:09.976Z,23.2
2018-09-17T11:54:10.435Z,23.3
2018-09-17T12:04:10.964Z,23.6
2018-09-17T12:14:11.056Z,23.7
2018-09-17T12:24:11.730Z,23.8
2018-09-17T12:34:12.120Z,24
2018-09-17T12:44:12.418Z,24.2
2018-09-17T12:54:12.875Z,24.2
2018-09-17T13:14:16.501Z,24.3
2018-09-17T13:24:16.859Z,24.3
2018-09-17T13:34:17.856Z,24.4
2018-09-17T13:44:24.623Z,24.4
2018-09-17T14:04:33.062Z,24.6
2018-09-17T14:14:33.471Z,24.6
2018-09-17T14:24:33.694Z,24.6
2018-09-17T14:34:33.960Z,24.6
2018-09-17T14:44:34.456Z,24.6
2018-09-17T14:54:34.819Z,24.4
2018-09-17T15:04:35.126Z,24.4
2018-09-17T15:14:35.818Z,24.4
2018-09-17T15:24:36.294Z,24.2
2018-09-17T15:34:36.646Z,24.1
2018-09-17T15:54:39.366Z,23.8
2018-09-17T16:04:39.985Z,23.7
2018-09-17T16:24:42.602Z,23.5
2018-09-17T16:34:43.112Z,23.3
2018-09-17T16:54:46.485Z,23.1
2018-09-17T17:04:46.768Z,22.9
2018-09-17T17:14:46.649Z,22.7
2018-09-17T17:24:46.766Z,22.4
2018-09-17T17:34:49.481Z,22
2018-09-17T17:54:54.580Z,21.2
2018-09-17T18:14:59.108Z,20.5
2018-09-17T18:25:00.479Z,20.2
2018-09-17T18:35:00.731Z,19.8
2018-09-17T18:45:00.832Z,19.5
2018-09-17T18:55:01.393Z,19.2
2018-09-17T19:05:01.590Z,19
2018-09-17T19:25:04.443Z,18.4
2018-09-17T19:35:05.387Z,18.1
2018-09-17T19:45:05.883Z,17.9
2018-09-17T19:55:06.001Z,17.7
2018-09-17T20:05:06.814Z,17.6
2018-09-17T20:35:12.672Z,16.9
2018-09-17T20:45:13.134Z,16.8
2018-09-17T20:55:13.347Z,16.6
2018-09-17T21:05:13.672Z,16.5
2018-09-17T21:15:16.746Z,16.2
2018-09-17T21:25:17.121Z,16
2018-09-17T21:35:17.391Z,15.9
2018-09-17T21:55:20.498Z,15.9
2018-09-17T22:05:20.759Z,15.9
2018-09-17T22:25:23.911Z,15.7
2018-09-17T22:35:24.167Z,15.7
2018-09-17T22:45:24.109Z,15.6
2018-09-17T22:55:24.072Z,15.5
2018-09-17T23:05:24.456Z,15.4
2018-09-17T23:15:25.095Z,15.3
2018-09-17T23:25:25.731Z,15.3
2018-09-17T23:45:28.974Z,15.2
